aviador You're here:

KLCH Decoded Metar

LAKE CHARLES in LA, USA
Report Time2018-05-21 23:53:00
UTC Time2018-05-22 00:09:20
Flight Rules vfr VFR
Wind220° at 05 kt
W.Decomp.*RWY 23: 4.9 kt HW 1.1 kt LCW
RWY 15: 2.0 kt HW 4.6 kt RCW
W.Rank220° ranks 20
Current wind is below 220° avg. (6.4)
Visibility9999 m
Phenomena:N/A
Clouds:N/A
Expected CloudBase > 2,400 ft AGL from Temp-Dew spread
CeilingNone
Temp28°C (ISA +13)
Dew Point22°C (70% RH)
Heat Index30.7°C
QNH1014 hPa
Density Alt1,827 ft
Elevation13 ft
Report Wrong Elevation
Raw Report
KLCH 212353Z 22005KT 10SM CLR 28/22 A2994 RMK AO2 SLP146 60035
T02780222 10322 20239 55007=

Extra information for KLCH:More info

Metar Taf Metar & Taf Last 4 Metars F.Rules Stats Wind Profile Meteogram Temp Stats Airport Information Weather charts Add Link Nearby VenuesMetar ALERT Operation Metar Decoded Social comments

AIRNAV info for KLCH